createdAt,value
2018-09-01T00:01:07.374Z,17.63
2018-09-01T00:03:35.235Z,18.23
2018-09-01T00:06:02.832Z,21.53
2018-09-01T00:08:30.442Z,21.67
2018-09-01T00:10:58.100Z,19.30
2018-09-01T00:13:26.009Z,21.73
2018-09-01T00:15:53.669Z,22.10
2018-09-01T00:18:21.315Z,22.13
2018-09-01T00:20:48.857Z,22.37
2018-09-01T00:23:16.397Z,22.47
2018-09-01T00:25:44.055Z,20.33
2018-09-01T00:28:11.630Z,27.83
2018-09-01T00:30:39.310Z,25.03
2018-09-01T00:33:06.852Z,24.83
2018-09-01T00:35:34.397Z,21.73
2018-09-01T00:38:07.531Z,25.50
2018-09-01T00:40:35.391Z,23.83
2018-09-01T00:43:03.024Z,23.53
2018-09-01T00:45:30.961Z,23.77
2018-09-01T00:47:58.494Z,30.40
2018-09-01T00:50:26.132Z,23.97
2018-09-01T00:52:53.732Z,26.23
2018-09-01T00:55:26.864Z,27.50
2018-09-01T00:57:54.776Z,27.57
2018-09-01T01:00:22.744Z,26.07
2018-09-01T01:02:51.017Z,28.00
2018-09-01T01:05:18.644Z,25.57
2018-09-01T01:07:46.215Z,23.50
2018-09-01T01:10:13.751Z,23.50
2018-09-01T01:12:41.439Z,22.53
2018-09-01T01:15:09.714Z,27.03
2018-09-01T01:17:37.470Z,24.83
2018-09-01T01:20:05.471Z,22.60
2018-09-01T01:22:33.045Z,28.10
2018-09-01T01:25:00.598Z,28.20
2018-09-01T01:27:28.236Z,24.20
2018-09-01T01:29:55.860Z,26.30
2018-09-01T01:32:23.476Z,29.83
2018-09-01T01:34:51.104Z,25.27
2018-09-01T01:37:18.755Z,25.03
2018-09-01T01:39:46.279Z,22.47
2018-09-01T01:42:13.890Z,31.93
2018-09-01T01:44:41.447Z,34.47
2018-09-01T01:47:09.123Z,23.50
2018-09-01T01:49:36.756Z,24.13
2018-09-01T01:52:04.568Z,23.67
2018-09-01T01:54:32.152Z,26.30
2018-09-01T01:56:59.675Z,24.33
2018-09-01T01:59:27.315Z,23.53
2018-09-01T02:01:54.995Z,27.60
2018-09-01T02:04:22.600Z,30.80
2018-09-01T02:06:50.141Z,24.70
2018-09-01T02:09:17.643Z,28.60
2018-09-01T02:11:45.322Z,21.93
2018-09-01T02:14:13.034Z,29.23
2018-09-01T02:16:40.628Z,24.17
2018-09-01T02:19:08.248Z,26.00
2018-09-01T02:21:36.820Z,27.57
2018-09-01T02:24:04.467Z,26.00
2018-09-01T02:26:32.191Z,22.50
2018-09-01T02:28:59.749Z,28.67
2018-09-01T02:31:27.771Z,23.90
2018-09-01T02:33:55.740Z,27.10
2018-09-01T02:36:23.431Z,20.73
2018-09-01T02:38:51.043Z,34.20
2018-09-01T02:41:18.709Z,21.77
2018-09-01T02:43:46.332Z,25.40
2018-09-01T02:46:14.035Z,26.40
2018-09-01T02:48:41.688Z,24.83
2018-09-01T02:51:09.876Z,23.10
2018-09-01T02:53:37.677Z,28.20
2018-09-01T02:56:05.674Z,27.73
2018-09-01T02:58:33.276Z,26.90
2018-09-01T03:01:06.572Z,32.07
2018-09-01T03:03:34.392Z,25.90
2018-09-01T03:06:02.137Z,28.10
2018-09-01T03:08:29.799Z,25.03
2018-09-01T03:10:57.424Z,26.77
2018-09-01T03:13:25.000Z,26.00
2018-09-01T03:15:52.570Z,27.23
2018-09-01T03:18:20.085Z,31.87
2018-09-01T03:20:47.701Z,29.30
2018-09-01T03:23:15.316Z,21.00
2018-09-01T03:25:43.201Z,23.90
2018-09-01T03:28:10.960Z,27.40
2018-09-01T03:30:38.481Z,23.53
2018-09-01T03:33:06.127Z,26.67
2018-09-01T03:35:33.729Z,30.10
2018-09-01T03:38:01.511Z,25.33
2018-09-01T03:40:29.161Z,25.80
2018-09-01T03:42:56.782Z,29.10
2018-09-01T03:45:24.292Z,31.93
2018-09-01T03:47:52.730Z,24.43
2018-09-01T03:50:20.277Z,25.83
2018-09-01T03:52:47.978Z,26.13
2018-09-01T03:55:15.645Z,21.33
2018-09-01T03:57:43.259Z,19.90
2018-09-01T04:00:10.883Z,23.10
2018-09-01T04:02:38.518Z,23.90
2018-09-01T04:05:06.603Z,29.63
2018-09-01T04:07:34.258Z,21.40
2018-09-01T04:10:02.256Z,23.17
2018-09-01T04:12:29.801Z,21.10
2018-09-01T04:14:57.439Z,26.40
2018-09-01T04:17:25.220Z,18.83
2018-09-01T04:19:52.752Z,26.33
2018-09-01T04:22:20.458Z,20.20
2018-09-01T04:24:48.000Z,22.03
2018-09-01T04:27:15.670Z,29.47
2018-09-01T04:29:43.317Z,23.23
2018-09-01T04:32:11.050Z,24.67
2018-09-01T04:34:38.604Z,22.10
2018-09-01T04:37:06.171Z,24.90
2018-09-01T04:39:33.848Z,18.80
2018-09-01T04:42:01.528Z,25.27
2018-09-01T04:44:29.152Z,16.53
2018-09-01T04:46:56.778Z,22.37
2018-09-01T04:49:24.392Z,19.63
2018-09-01T04:51:51.880Z,22.33
2018-09-01T04:54:19.743Z,21.63
2018-09-01T04:56:47.399Z,25.00
2018-09-01T04:59:14.927Z,20.80
2018-09-01T05:01:42.467Z,23.33
2018-09-01T05:04:10.102Z,17.33
2018-09-01T05:06:37.761Z,13.20
2018-09-01T05:09:06.731Z,22.40
2018-09-01T05:11:34.299Z,13.17
2018-09-01T05:14:01.947Z,13.03
2018-09-01T05:16:29.642Z,18.87
2018-09-01T05:18:57.307Z,15.77
2018-09-01T05:21:24.946Z,13.57
2018-09-01T05:23:52.798Z,24.97
2018-09-01T05:26:20.436Z,20.80
2018-09-01T05:28:48.193Z,18.07
2018-09-01T05:31:15.803Z,17.30
2018-09-01T05:33:43.510Z,18.90
2018-09-01T05:36:11.147Z,19.50
2018-09-01T05:38:38.978Z,17.03
2018-09-01T05:41:06.760Z,13.60
2018-09-01T05:43:34.444Z,14.03
2018-09-01T05:46:02.169Z,24.13
2018-09-01T05:48:29.707Z,20.10
2018-09-01T05:50:57.381Z,13.20
2018-09-01T05:53:24.928Z,23.23
2018-09-01T05:55:52.630Z,12.20
2018-09-01T05:58:20.248Z,13.00
2018-09-01T06:00:49.137Z,13.57
2018-09-01T06:03:17.251Z,12.97
2018-09-01T06:05:45.338Z,16.07
2018-09-01T06:08:12.878Z,17.70
2018-09-01T06:10:40.436Z,15.70
2018-09-01T06:13:07.975Z,9.80
2018-09-01T06:15:35.655Z,11.07
2018-09-01T06:18:03.526Z,21.60
2018-09-01T06:20:31.096Z,13.93
2018-09-01T06:22:58.743Z,11.10
2018-09-01T06:25:26.401Z,12.60
2018-09-01T06:27:56.189Z,20.10
2018-09-01T06:30:30.431Z,9.17
2018-09-01T06:32:58.487Z,14.20
2018-09-01T06:35:26.070Z,15.83
2018-09-01T06:37:53.683Z,11.40
2018-09-01T06:40:21.250Z,15.93
2018-09-01T06:42:48.803Z,20.23
2018-09-01T06:45:16.415Z,14.80
2018-09-01T06:47:43.975Z,10.33
2018-09-01T06:50:11.593Z,6.90
2018-09-01T06:52:39.391Z,8.53
2018-09-01T06:55:07.172Z,6.30
2018-09-01T06:57:34.737Z,16.07
2018-09-01T07:00:02.714Z,14.97
2018-09-01T07:02:30.364Z,9.33
2018-09-01T07:04:57.902Z,20.73
2018-09-01T07:07:25.523Z,7.57
2018-09-01T07:09:53.278Z,11.27
2018-09-01T07:12:20.877Z,12.70
2018-09-01T07:14:48.511Z,10.77
2018-09-01T07:17:16.128Z,8.30
2018-09-01T07:19:43.852Z,9.10
2018-09-01T07:22:11.334Z,17.77
2018-09-01T07:24:39.130Z,11.20
2018-09-01T07:27:06.860Z,8.57
2018-09-01T07:29:34.431Z,8.40
2018-09-01T07:32:01.988Z,8.10
2018-09-01T07:34:29.639Z,4.27
2018-09-01T07:36:57.186Z,8.50
2018-09-01T07:39:24.748Z,9.00
2018-09-01T07:41:52.574Z,8.63
2018-09-01T07:44:20.185Z,10.57
2018-09-01T07:46:47.867Z,11.43
2018-09-01T07:49:15.397Z,6.13
2018-09-01T07:51:42.946Z,7.00
2018-09-01T07:54:10.486Z,13.03
2018-09-01T07:56:38.120Z,10.10
2018-09-01T07:59:05.780Z,6.70
2018-09-01T08:01:33.379Z,10.97
2018-09-01T08:04:01.187Z,7.50
2018-09-01T08:06:28.885Z,9.00
2018-09-01T08:08:56.495Z,9.57
2018-09-01T08:11:24.156Z,5.43
2018-09-01T08:13:51.663Z,6.93
2018-09-01T08:16:19.428Z,6.17
2018-09-01T08:18:47.040Z,5.77
2018-09-01T08:21:14.621Z,7.50
2018-09-01T08:23:42.153Z,6.07
2018-09-01T08:26:10.181Z,3.97
2018-09-01T08:28:37.608Z,9.33
2018-09-01T08:31:05.191Z,10.67
2018-09-01T08:33:33.100Z,4.33
2018-09-01T08:36:00.683Z,2.60
2018-09-01T08:38:28.294Z,4.23
2018-09-01T08:40:55.901Z,6.60
2018-09-01T08:43:23.584Z,5.50
2018-09-01T08:45:51.145Z,7.30
2018-09-01T08:48:18.975Z,3.90
2018-09-01T08:50:46.572Z,8.77
2018-09-01T08:53:14.465Z,12.43
2018-09-01T08:55:42.398Z,9.50
2018-09-01T08:58:10.075Z,7.73
2018-09-01T09:00:37.692Z,6.13
2018-09-01T09:03:05.617Z,6.43
2018-09-01T09:05:33.297Z,11.47
2018-09-01T09:08:00.948Z,7.10
2018-09-01T09:10:28.690Z,3.90
2018-09-01T09:12:56.666Z,2.43
2018-09-01T09:15:24.316Z,7.57
2018-09-01T09:17:52.310Z,3.83
2018-09-01T09:20:20.064Z,8.60
2018-09-01T09:22:47.840Z,5.33
2018-09-01T09:25:15.865Z,5.00
2018-09-01T09:27:43.464Z,5.27
2018-09-01T09:30:11.149Z,6.40
2018-09-01T09:32:38.735Z,4.40
2018-09-01T09:35:06.296Z,7.40
2018-09-01T09:37:34.111Z,5.10
2018-09-01T09:40:01.795Z,12.53
2018-09-01T09:42:29.399Z,5.27
2018-09-01T09:44:57.095Z,8.43
2018-09-01T09:47:24.765Z,3.67
2018-09-01T09:49:52.381Z,4.10
2018-09-01T09:52:20.066Z,5.90
2018-09-01T09:54:47.898Z,6.83
2018-09-01T09:57:15.544Z,6.57
2018-09-01T09:59:43.168Z,4.60
2018-09-01T10:02:10.684Z,3.43
2018-09-01T10:04:38.214Z,5.07
2018-09-01T10:07:05.791Z,4.40
2018-09-01T10:09:33.382Z,4.70
2018-09-01T10:12:00.934Z,3.90
2018-09-01T10:14:28.476Z,9.23
2018-09-01T10:16:56.284Z,2.53
2018-09-01T10:19:23.951Z,5.00
2018-09-01T10:21:51.491Z,6.83
2018-09-01T10:24:19.229Z,8.50
2018-09-01T10:26:46.987Z,17.27
2018-09-01T10:29:14.587Z,10.37
2018-09-01T10:31:42.216Z,2.70
2018-09-01T10:34:09.785Z,4.30
2018-09-01T10:36:37.588Z,8.00
2018-09-01T10:39:07.853Z,6.10
2018-09-01T10:41:35.642Z,2.93
2018-09-01T10:44:03.483Z,5.40
2018-09-01T10:46:31.097Z,4.20
2018-09-01T10:48:58.878Z,5.37
2018-09-01T10:51:26.641Z,5.47
2018-09-01T10:53:54.287Z,5.80
2018-09-01T10:56:21.952Z,8.13
2018-09-01T10:58:49.674Z,7.13
2018-09-01T11:01:17.247Z,5.23
2018-09-01T11:03:45.083Z,5.90
2018-09-01T11:06:12.800Z,10.70
2018-09-01T11:08:40.459Z,11.07
2018-09-01T11:11:08.364Z,5.50
2018-09-01T11:13:35.996Z,6.03
2018-09-01T11:16:03.770Z,9.23
2018-09-01T11:18:31.418Z,3.13
2018-09-01T11:20:59.222Z,6.50
2018-09-01T11:23:26.754Z,5.93
2018-09-01T11:25:54.405Z,7.33
2018-09-01T11:28:22.040Z,11.50
2018-09-01T11:30:49.786Z,5.37
2018-09-01T11:33:17.396Z,5.20
2018-09-01T11:35:45.075Z,8.00
2018-09-01T11:38:12.823Z,7.30
2018-09-01T11:40:40.582Z,15.27
2018-09-01T11:43:08.376Z,6.80
2018-09-01T11:45:35.810Z,7.53
2018-09-01T11:48:03.509Z,3.73
2018-09-01T11:50:31.085Z,21.83
2018-09-01T11:52:58.779Z,7.03
2018-09-01T11:55:26.297Z,9.40
2018-09-01T11:57:53.923Z,4.50
2018-09-01T12:00:21.788Z,6.93
2018-09-01T12:02:49.770Z,9.83
2018-09-01T12:05:17.407Z,4.17
2018-09-01T12:07:45.206Z,7.40
2018-09-01T12:10:12.800Z,5.90
2018-09-01T12:12:40.308Z,11.20
2018-09-01T12:15:07.944Z,5.73
2018-09-01T12:17:35.613Z,6.37
2018-09-01T12:20:03.198Z,2.20
2018-09-01T12:22:30.900Z,6.53
2018-09-01T12:24:58.498Z,4.43
2018-09-01T12:27:26.208Z,6.50
2018-09-01T12:29:53.849Z,7.80
2018-09-01T12:32:21.503Z,4.23
2018-09-01T12:34:49.389Z,5.10
2018-09-01T12:37:17.050Z,9.90
2018-09-01T12:39:44.713Z,11.30
2018-09-01T12:42:12.472Z,4.80
2018-09-01T12:44:40.213Z,5.63
2018-09-01T12:47:08.174Z,4.13
2018-09-01T12:49:36.094Z,4.90
2018-09-01T12:52:03.747Z,4.20
2018-09-01T12:54:31.409Z,12.43
2018-09-01T12:56:59.137Z,9.70
2018-09-01T12:59:26.831Z,6.53
2018-09-01T13:01:54.519Z,8.13
2018-09-01T13:04:22.183Z,3.90
2018-09-01T13:06:49.817Z,9.03
2018-09-01T13:09:17.375Z,7.47
2018-09-01T13:11:44.940Z,9.93
2018-09-01T13:14:12.579Z,7.27
2018-09-01T13:16:40.155Z,9.53
2018-09-01T13:19:07.715Z,3.70
2018-09-01T13:21:35.298Z,8.53
2018-09-01T13:24:02.881Z,1.90
2018-09-01T13:26:30.455Z,5.13
2018-09-01T13:28:58.122Z,13.70
2018-09-01T13:31:25.994Z,4.00
2018-09-01T13:33:53.766Z,6.73
2018-09-01T13:36:21.612Z,6.37
2018-09-01T13:38:49.268Z,6.27
2018-09-01T13:41:16.754Z,3.27
2018-09-01T13:43:44.313Z,3.37
2018-09-01T13:46:12.077Z,9.50
2018-09-01T13:48:39.761Z,8.50
2018-09-01T13:51:07.633Z,2.93
2018-09-01T13:53:35.508Z,3.03
2018-09-01T13:56:03.130Z,9.90
2018-09-01T13:58:30.797Z,8.67
2018-09-01T14:00:58.555Z,7.43
2018-09-01T14:03:26.363Z,5.43
2018-09-01T14:05:54.102Z,3.93
2018-09-01T14:08:21.777Z,3.73
2018-09-01T14:10:49.607Z,5.30
2018-09-01T14:13:18.099Z,9.60
2018-09-01T14:15:45.891Z,9.43
2018-09-01T14:18:13.689Z,14.07
2018-09-01T14:20:41.280Z,6.97
2018-09-01T14:23:08.854Z,4.17
2018-09-01T14:25:36.892Z,3.83
2018-09-01T14:28:04.717Z,10.93
2018-09-01T14:30:33.014Z,11.67
2018-09-01T14:33:00.718Z,8.03
2018-09-01T14:35:28.214Z,6.23
2018-09-01T14:37:55.776Z,8.73
2018-09-01T14:40:23.289Z,6.13
2018-09-01T14:42:50.916Z,2.03
2018-09-01T14:45:18.547Z,1.80
2018-09-01T14:47:46.203Z,4.33
2018-09-01T14:50:13.864Z,4.03
2018-09-01T14:52:41.484Z,4.80
2018-09-01T14:55:09.183Z,5.87
2018-09-01T14:57:36.813Z,8.57
2018-09-01T15:00:05.312Z,3.17
2018-09-01T15:02:32.832Z,5.63
2018-09-01T15:05:00.493Z,3.63
2018-09-01T15:07:28.001Z,3.93
2018-09-01T15:09:55.670Z,6.80
2018-09-01T15:12:23.343Z,8.03
2018-09-01T15:14:51.023Z,3.70
2018-09-01T15:17:18.594Z,7.00
2018-09-01T15:19:46.241Z,4.60
2018-09-01T15:22:13.836Z,12.17
2018-09-01T15:24:41.446Z,5.87
2018-09-01T15:27:09.000Z,6.63
2018-09-01T15:29:36.675Z,8.70
2018-09-01T15:32:04.372Z,9.00
2018-09-01T15:34:32.326Z,10.03
2018-09-01T15:36:59.979Z,9.87
2018-09-01T15:39:27.514Z,25.90
2018-09-01T15:41:55.119Z,12.00
2018-09-01T15:44:22.777Z,4.97
2018-09-01T15:46:50.368Z,13.13
2018-09-01T15:49:17.952Z,5.20
2018-09-01T15:51:45.538Z,10.83
2018-09-01T15:54:13.093Z,10.80
2018-09-01T15:56:40.712Z,31.80
2018-09-01T15:59:08.333Z,14.00
2018-09-01T16:01:35.906Z,5.30
2018-09-01T16:04:03.475Z,7.77
2018-09-01T16:06:31.062Z,19.13
2018-09-01T16:08:58.648Z,10.17
2018-09-01T16:11:26.420Z,17.90
2018-09-01T16:13:53.957Z,17.20
2018-09-01T16:16:21.563Z,15.87
2018-09-01T16:18:49.242Z,14.20
2018-09-01T16:21:16.816Z,11.90
2018-09-01T16:23:44.369Z,9.37
2018-09-01T16:26:11.917Z,6.50
2018-09-01T16:28:39.495Z,5.63
2018-09-01T16:31:07.147Z,8.57
2018-09-01T16:33:34.708Z,4.10
2018-09-01T16:36:02.370Z,11.60
2018-09-01T16:38:29.980Z,5.50
2018-09-01T16:40:57.584Z,7.60
2018-09-01T16:43:25.213Z,6.90
2018-09-01T16:45:52.776Z,6.20
2018-09-01T16:48:20.326Z,6.00
2018-09-01T16:50:47.917Z,7.33
2018-09-01T16:53:15.531Z,5.67
2018-09-01T16:55:43.126Z,6.63
2018-09-01T16:58:10.719Z,7.63
2018-09-01T17:00:38.417Z,13.27
2018-09-01T17:03:05.992Z,9.30
2018-09-01T17:05:33.566Z,6.63
2018-09-01T17:08:01.227Z,3.50
2018-09-01T17:10:28.856Z,4.87
2018-09-01T17:12:56.446Z,7.70
2018-09-01T17:15:24.252Z,2.47
2018-09-01T17:17:51.944Z,9.50
2018-09-01T17:20:19.558Z,2.80
2018-09-01T17:22:47.223Z,6.80
2018-09-01T17:25:14.856Z,7.57
2018-09-01T17:27:42.550Z,4.20
2018-09-01T17:30:10.135Z,3.93
2018-09-01T17:32:37.716Z,8.30
2018-09-01T17:35:05.380Z,3.77
2018-09-01T17:37:33.034Z,4.80
2018-09-01T17:40:01.415Z,5.87
2018-09-01T17:42:29.025Z,10.60
2018-09-01T17:44:56.655Z,2.57
2018-09-01T17:47:24.281Z,5.93
2018-09-01T17:49:51.912Z,3.27
2018-09-01T17:52:19.524Z,9.30
2018-09-01T17:54:47.190Z,7.63
2018-09-01T17:57:14.857Z,5.70
2018-09-01T17:59:42.451Z,3.97
2018-09-01T18:02:10.299Z,7.43
2018-09-01T18:04:37.944Z,3.67
2018-09-01T18:07:05.969Z,7.43
2018-09-01T18:09:33.536Z,19.47
2018-09-01T18:12:01.150Z,9.73
2018-09-01T18:14:28.738Z,4.90
2018-09-01T18:16:56.334Z,7.97
2018-09-01T18:19:23.964Z,11.53
2018-09-01T18:21:51.624Z,19.03
2018-09-01T18:24:19.213Z,5.37
2018-09-01T18:26:46.926Z,8.90
2018-09-01T18:29:14.524Z,7.33
2018-09-01T18:31:42.137Z,3.43
2018-09-01T18:34:09.726Z,8.90
2018-09-01T18:36:37.413Z,7.80
2018-09-01T18:39:06.649Z,4.13
2018-09-01T18:41:34.217Z,5.00
2018-09-01T18:44:01.842Z,9.40
2018-09-01T18:46:29.496Z,14.70
2018-09-01T18:48:57.044Z,7.47
2018-09-01T18:51:24.657Z,3.80
2018-09-01T18:53:52.318Z,3.93
2018-09-01T18:56:20.286Z,3.50
2018-09-01T18:58:47.878Z,1.80
2018-09-01T19:01:15.450Z,4.03
2018-09-01T19:03:43.109Z,13.50
2018-09-01T19:06:10.735Z,6.50
2018-09-01T19:08:45.211Z,6.13
2018-09-01T19:11:12.897Z,6.70
2018-09-01T19:13:40.508Z,7.47
2018-09-01T19:16:08.149Z,3.57
2018-09-01T19:18:36.109Z,15.87
2018-09-01T19:21:03.983Z,4.30
2018-09-01T19:23:31.601Z,6.70
2018-09-01T19:25:59.185Z,5.13
2018-09-01T19:28:26.780Z,7.27
2018-09-01T19:30:54.404Z,7.30
2018-09-01T19:33:22.026Z,8.47
2018-09-01T19:35:50.078Z,11.70
2018-09-01T19:38:17.729Z,2.53
2018-09-01T19:40:45.468Z,7.37
2018-09-01T19:43:13.166Z,6.80
2018-09-01T19:45:41.045Z,9.03
2018-09-01T19:48:08.388Z,10.60
2018-09-01T19:50:36.042Z,8.13
2018-09-01T19:53:04.052Z,8.17
2018-09-01T19:55:31.674Z,4.70
2018-09-01T19:57:59.219Z,2.50
2018-09-01T20:00:26.806Z,11.27
2018-09-01T20:02:54.506Z,6.37
2018-09-01T20:05:22.284Z,9.13
2018-09-01T20:07:50.102Z,10.13
2018-09-01T20:10:17.770Z,6.77
2018-09-01T20:12:45.370Z,5.93
2018-09-01T20:15:12.921Z,4.27
2018-09-01T20:17:40.499Z,4.53
2018-09-01T20:20:08.644Z,4.17
2018-09-01T20:22:36.250Z,4.00
2018-09-01T20:25:03.927Z,8.57
2018-09-01T20:27:31.548Z,3.03
2018-09-01T20:29:59.163Z,6.17
2018-09-01T20:32:26.790Z,5.40
2018-09-01T20:34:58.912Z,7.77
2018-09-01T20:37:26.541Z,4.40
2018-09-01T20:39:54.168Z,11.37
2018-09-01T20:42:21.756Z,4.60
2018-09-01T20:44:49.349Z,9.50
2018-09-01T20:47:16.929Z,8.03
2018-09-01T20:49:44.501Z,7.97
2018-09-01T20:52:12.092Z,8.37
2018-09-01T20:54:39.658Z,4.80
2018-09-01T20:57:07.260Z,9.40
2018-09-01T20:59:34.815Z,5.47
2018-09-01T21:02:02.460Z,6.97
2018-09-01T21:04:30.047Z,5.00
2018-09-01T21:06:57.659Z,8.63
2018-09-01T21:09:25.225Z,2.47
2018-09-01T21:11:52.783Z,3.33
2018-09-01T21:14:20.410Z,3.33
2018-09-01T21:16:47.964Z,6.93
2018-09-01T21:19:15.594Z,4.93
2018-09-01T21:21:43.201Z,6.73
2018-09-01T21:24:11.356Z,5.53
2018-09-01T21:26:39.012Z,6.27
2018-09-01T21:29:07.200Z,10.83
2018-09-01T21:31:34.781Z,17.00
2018-09-01T21:34:02.416Z,14.03
2018-09-01T21:36:29.972Z,7.10
2018-09-01T21:38:57.529Z,9.33
2018-09-01T21:41:25.135Z,23.50
2018-09-01T21:43:52.694Z,24.50
2018-09-01T21:46:20.215Z,19.10
2018-09-01T21:48:47.798Z,9.27
2018-09-01T21:51:15.371Z,7.40
2018-09-01T21:53:42.948Z,5.43
2018-09-01T21:56:10.632Z,8.60
2018-09-01T21:58:38.184Z,4.80
2018-09-01T22:01:11.699Z,4.83
2018-09-01T22:03:44.899Z,3.90
2018-09-01T22:06:12.471Z,7.70
2018-09-01T22:08:40.066Z,10.20
2018-09-01T22:11:07.583Z,5.53
2018-09-01T22:13:35.132Z,7.83
2018-09-01T22:16:02.678Z,7.33
2018-09-01T22:18:30.241Z,2.80
2018-09-01T22:20:57.802Z,6.20
2018-09-01T22:23:25.483Z,6.80
2018-09-01T22:25:53.047Z,3.00
2018-09-01T22:28:21.071Z,6.90
2018-09-01T22:30:48.639Z,5.43
2018-09-01T22:33:16.183Z,21.57
2018-09-01T22:35:44.007Z,2.70
2018-09-01T22:38:11.626Z,5.93
2018-09-01T22:40:39.217Z,5.53
2018-09-01T22:43:06.901Z,14.77
2018-09-01T22:45:34.573Z,9.20
2018-09-01T22:48:02.157Z,9.50
2018-09-01T22:50:29.929Z,6.70
2018-09-01T22:52:57.473Z,5.33
2018-09-01T22:55:25.149Z,6.90
2018-09-01T22:57:52.676Z,9.60
2018-09-01T23:00:20.273Z,4.77
2018-09-01T23:02:47.876Z,18.30
2018-09-01T23:05:15.410Z,6.53
2018-09-01T23:07:42.975Z,20.30
2018-09-01T23:10:10.565Z,6.83
2018-09-01T23:12:38.256Z,8.30
2018-09-01T23:15:05.840Z,13.03
2018-09-01T23:17:33.406Z,8.00
2018-09-01T23:20:01.017Z,13.77
2018-09-01T23:22:28.837Z,7.90
2018-09-01T23:24:56.444Z,4.57
2018-09-01T23:27:24.081Z,8.63
2018-09-01T23:29:51.715Z,5.33
2018-09-01T23:32:19.273Z,4.30
2018-09-01T23:34:46.808Z,5.27
2018-09-01T23:37:14.338Z,6.87
2018-09-01T23:39:41.864Z,4.37
2018-09-01T23:42:09.431Z,4.87
2018-09-01T23:44:36.945Z,5.23
2018-09-01T23:47:04.492Z,10.77
2018-09-01T23:49:32.084Z,10.00
2018-09-01T23:51:59.612Z,6.23
2018-09-01T23:54:27.160Z,7.10
2018-09-01T23:56:54.694Z,9.47
2018-09-01T23:59:22.398Z,11.60
